sensor_id;sensor_type;location;lat;lon;timestamp;temperature;humidity
4578;DHT22;2301;47.354;8.528;2024-01-11T00:00:11;9.50;85.40
4578;DHT22;2301;47.354;8.528;2024-01-11T00:02:38;9.50;85.20
4578;DHT22;2301;47.354;8.528;2024-01-11T00:05:06;9.50;84.70
4578;DHT22;2301;47.354;8.528;2024-01-11T00:07:33;9.50;85.00
4578;DHT22;2301;47.354;8.528;2024-01-11T00:10:01;9.50;85.60
4578;DHT22;2301;47.354;8.528;2024-01-11T00:12:28;9.50;84.30
4578;DHT22;2301;47.354;8.528;2024-01-11T00:14:55;9.50;84.40
4578;DHT22;2301;47.354;8.528;2024-01-11T00:17:23;9.50;83.60
4578;DHT22;2301;47.354;8.528;2024-01-11T00:19:50;9.50;83.80
4578;DHT22;2301;47.354;8.528;2024-01-11T00:22:18;9.50;83.40
4578;DHT22;2301;47.354;8.528;2024-01-11T00:24:45;9.40;83.10
4578;DHT22;2301;47.354;8.528;2024-01-11T00:27:11;9.40;83.80
4578;DHT22;2301;47.354;8.528;2024-01-11T00:29:38;9.40;82.60
4578;DHT22;2301;47.354;8.528;2024-01-11T00:32:05;9.40;83.00
4578;DHT22;2301;47.354;8.528;2024-01-11T00:34:34;9.40;82.50
4578;DHT22;2301;47.354;8.528;2024-01-11T00:37:01;9.40;82.20
4578;DHT22;2301;47.354;8.528;2024-01-11T00:39:28;9.20;78.50
4578;DHT22;2301;47.354;8.528;2024-01-11T00:41:55;9.10;81.80
4578;DHT22;2301;47.354;8.528;2024-01-11T00:44:22;9.10;81.90
4578;DHT22;2301;47.354;8.528;2024-01-11T00:46:49;9.10;83.40
4578;DHT22;2301;47.354;8.528;2024-01-11T00:49:16;9.20;82.60
4578;DHT22;2301;47.354;8.528;2024-01-11T00:51:44;9.10;81.80
4578;DHT22;2301;47.354;8.528;2024-01-11T00:54:11;9.20;82.70
4578;DHT22;2301;47.354;8.528;2024-01-11T00:56:38;9.20;82.80
4578;DHT22;2301;47.354;8.528;2024-01-11T00:59:05;9.10;80.40
4578;DHT22;2301;47.354;8.528;2024-01-11T01:01:31;9.00;80.50
4578;DHT22;2301;47.354;8.528;2024-01-11T01:03:58;9.10;81.90
4578;DHT22;2301;47.354;8.528;2024-01-11T01:06:25;9.10;82.70
4578;DHT22;2301;47.354;8.528;2024-01-11T01:08:54;9.20;82.20
4578;DHT22;2301;47.354;8.528;2024-01-11T01:11:21;9.20;82.10
4578;DHT22;2301;47.354;8.528;2024-01-11T01:13:47;9.20;81.60
4578;DHT22;2301;47.354;8.528;2024-01-11T01:16:14;9.30;81.40
4578;DHT22;2301;47.354;8.528;2024-01-11T01:18:43;9.20;81.00
4578;DHT22;2301;47.354;8.528;2024-01-11T01:21:10;9.20;81.20
4578;DHT22;2301;47.354;8.528;2024-01-11T01:23:37;9.20;80.90
4578;DHT22;2301;47.354;8.528;2024-01-11T01:26:06;9.20;80.40
4578;DHT22;2301;47.354;8.528;2024-01-11T01:28:33;9.20;79.90
4578;DHT22;2301;47.354;8.528;2024-01-11T01:31:00;9.20;80.60
4578;DHT22;2301;47.354;8.528;2024-01-11T01:33:26;9.20;80.70
4578;DHT22;2301;47.354;8.528;2024-01-11T01:35:53;9.20;79.70
4578;DHT22;2301;47.354;8.528;2024-01-11T01:38:20;9.20;79.40
4578;DHT22;2301;47.354;8.528;2024-01-11T01:40:47;9.20;80.30
4578;DHT22;2301;47.354;8.528;2024-01-11T01:43:15;9.20;79.90
4578;DHT22;2301;47.354;8.528;2024-01-11T01:45:42;9.20;80.30
4578;DHT22;2301;47.354;8.528;2024-01-11T01:48:09;9.20;79.70
4578;DHT22;2301;47.354;8.528;2024-01-11T01:50:36;9.20;80.20
4578;DHT22;2301;47.354;8.528;2024-01-11T01:53:03;9.20;79.70
4578;DHT22;2301;47.354;8.528;2024-01-11T01:55:31;9.20;80.60
4578;DHT22;2301;47.354;8.528;2024-01-11T01:57:59;9.20;80.00
4578;DHT22;2301;47.354;8.528;2024-01-11T02:00:28;9.20;79.60
4578;DHT22;2301;47.354;8.528;2024-01-11T02:02:55;9.20;79.40
4578;DHT22;2301;47.354;8.528;2024-01-11T02:05:23;9.20;79.30
4578;DHT22;2301;47.354;8.528;2024-01-11T02:07:50;9.20;78.60
4578;DHT22;2301;47.354;8.528;2024-01-11T02:10:19;9.20;77.80
4578;DHT22;2301;47.354;8.528;2024-01-11T02:12:45;9.20;79.00
4578;DHT22;2301;47.354;8.528;2024-01-11T02:15:13;9.20;78.80
4578;DHT22;2301;47.354;8.528;2024-01-11T02:17:42;9.10;79.00
4578;DHT22;2301;47.354;8.528;2024-01-11T02:20:10;9.10;78.70
4578;DHT22;2301;47.354;8.528;2024-01-11T02:22:40;9.10;78.30
4578;DHT22;2301;47.354;8.528;2024-01-11T02:25:09;9.20;78.70
4578;DHT22;2301;47.354;8.528;2024-01-11T02:27:46;9.10;78.60
4578;DHT22;2301;47.354;8.528;2024-01-11T02:30:14;9.20;78.30
4578;DHT22;2301;47.354;8.528;2024-01-11T02:32:43;9.10;78.10
4578;DHT22;2301;47.354;8.528;2024-01-11T02:35:14;9.10;78.20
4578;DHT22;2301;47.354;8.528;2024-01-11T02:37:43;9.10;78.20
4578;DHT22;2301;47.354;8.528;2024-01-11T02:40:13;9.20;78.40
4578;DHT22;2301;47.354;8.528;2024-01-11T02:42:40;9.20;78.00
4578;DHT22;2301;47.354;8.528;2024-01-11T02:45:07;9.10;77.70
4578;DHT22;2301;47.354;8.528;2024-01-11T02:47:34;9.10;77.90
4578;DHT22;2301;47.354;8.528;2024-01-11T02:50:01;9.10;78.00
4578;DHT22;2301;47.354;8.528;2024-01-11T02:52:28;9.10;77.80
4578;DHT22;2301;47.354;8.528;2024-01-11T02:54:55;9.10;77.50
4578;DHT22;2301;47.354;8.528;2024-01-11T02:57:22;9.00;77.30
4578;DHT22;2301;47.354;8.528;2024-01-11T02:59:51;9.00;77.40
4578;DHT22;2301;47.354;8.528;2024-01-11T03:02:18;9.00;77.40
4578;DHT22;2301;47.354;8.528;2024-01-11T03:04:45;9.00;77.40
4578;DHT22;2301;47.354;8.528;2024-01-11T03:07:11;9.00;76.80
4578;DHT22;2301;47.354;8.528;2024-01-11T03:09:38;9.00;78.20
4578;DHT22;2301;47.354;8.528;2024-01-11T03:12:06;9.00;78.40
4578;DHT22;2301;47.354;8.528;2024-01-11T03:14:34;9.00;77.80
4578;DHT22;2301;47.354;8.528;2024-01-11T03:17:01;9.00;76.50
4578;DHT22;2301;47.354;8.528;2024-01-11T03:19:28;8.90;76.00
4578;DHT22;2301;47.354;8.528;2024-01-11T03:21:55;8.90;77.80
4578;DHT22;2301;47.354;8.528;2024-01-11T03:24:21;8.80;77.20
4578;DHT22;2301;47.354;8.528;2024-01-11T03:26:48;8.90;77.60
4578;DHT22;2301;47.354;8.528;2024-01-11T03:29:15;8.90;77.40
4578;DHT22;2301;47.354;8.528;2024-01-11T03:31:43;8.90;77.80
4578;DHT22;2301;47.354;8.528;2024-01-11T03:34:10;8.90;77.30
4578;DHT22;2301;47.354;8.528;2024-01-11T03:36:37;9.00;77.30
4578;DHT22;2301;47.354;8.528;2024-01-11T03:39:04;9.00;77.10
4578;DHT22;2301;47.354;8.528;2024-01-11T03:41:31;9.00;77.00
4578;DHT22;2301;47.354;8.528;2024-01-11T03:43:58;9.00;76.80
4578;DHT22;2301;47.354;8.528;2024-01-11T03:46:25;8.90;76.10
4578;DHT22;2301;47.354;8.528;2024-01-11T03:48:53;8.90;76.60
4578;DHT22;2301;47.354;8.528;2024-01-11T03:51:21;8.90;76.70
4578;DHT22;2301;47.354;8.528;2024-01-11T03:53:48;9.00;77.00
4578;DHT22;2301;47.354;8.528;2024-01-11T03:56:14;9.00;76.70
4578;DHT22;2301;47.354;8.528;2024-01-11T03:58:41;9.00;76.60
4578;DHT22;2301;47.354;8.528;2024-01-11T04:01:10;9.00;75.90
4578;DHT22;2301;47.354;8.528;2024-01-11T04:03:37;9.00;75.50
4578;DHT22;2301;47.354;8.528;2024-01-11T04:06:05;8.90;76.10
4578;DHT22;2301;47.354;8.528;2024-01-11T04:08:32;8.90;75.60
4578;DHT22;2301;47.354;8.528;2024-01-11T04:11:02;9.00;76.50
4578;DHT22;2301;47.354;8.528;2024-01-11T04:13:29;9.00;76.30
4578;DHT22;2301;47.354;8.528;2024-01-11T04:15:56;9.00;76.00
4578;DHT22;2301;47.354;8.528;2024-01-11T04:18:23;9.00;75.90
4578;DHT22;2301;47.354;8.528;2024-01-11T04:20:50;9.00;75.60
4578;DHT22;2301;47.354;8.528;2024-01-11T04:23:18;9.10;75.80
4578;DHT22;2301;47.354;8.528;2024-01-11T04:25:45;9.10;75.70
4578;DHT22;2301;47.354;8.528;2024-01-11T04:28:12;9.00;75.60
4578;DHT22;2301;47.354;8.528;2024-01-11T04:30:39;9.00;75.30
4578;DHT22;2301;47.354;8.528;2024-01-11T04:33:06;9.10;75.70
4578;DHT22;2301;47.354;8.528;2024-01-11T04:35:32;9.00;74.80
4578;DHT22;2301;47.354;8.528;2024-01-11T04:37:59;9.00;74.30
4578;DHT22;2301;47.354;8.528;2024-01-11T04:40:27;8.90;74.70
4578;DHT22;2301;47.354;8.528;2024-01-11T04:42:54;8.90;75.00
4578;DHT22;2301;47.354;8.528;2024-01-11T04:45:21;8.90;75.10
4578;DHT22;2301;47.354;8.528;2024-01-11T04:47:50;8.90;75.10
4578;DHT22;2301;47.354;8.528;2024-01-11T04:50:17;8.90;74.90
4578;DHT22;2301;47.354;8.528;2024-01-11T04:52:44;8.90;74.60
4578;DHT22;2301;47.354;8.528;2024-01-11T04:55:11;8.90;74.70
4578;DHT22;2301;47.354;8.528;2024-01-11T04:57:39;8.80;74.30
4578;DHT22;2301;47.354;8.528;2024-01-11T05:00:07;8.80;74.70
4578;DHT22;2301;47.354;8.528;2024-01-11T05:02:34;8.80;74.90
4578;DHT22;2301;47.354;8.528;2024-01-11T05:05:01;8.80;74.90
4578;DHT22;2301;47.354;8.528;2024-01-11T05:07:28;8.90;75.00
4578;DHT22;2301;47.354;8.528;2024-01-11T05:09:54;8.90;74.50
4578;DHT22;2301;47.354;8.528;2024-01-11T05:12:21;8.90;75.20
4578;DHT22;2301;47.354;8.528;2024-01-11T05:14:50;9.00;75.10
4578;DHT22;2301;47.354;8.528;2024-01-11T05:17:16;9.00;74.20
4578;DHT22;2301;47.354;8.528;2024-01-11T05:19:43;8.90;73.80
4578;DHT22;2301;47.354;8.528;2024-01-11T05:22:10;8.90;74.10
4578;DHT22;2301;47.354;8.528;2024-01-11T05:24:37;8.80;73.10
4578;DHT22;2301;47.354;8.528;2024-01-11T05:27:04;8.80;73.60
4578;DHT22;2301;47.354;8.528;2024-01-11T05:29:31;8.70;73.60
4578;DHT22;2301;47.354;8.528;2024-01-11T05:31:59;8.80;74.60
4578;DHT22;2301;47.354;8.528;2024-01-11T05:34:26;8.70;73.90
4578;DHT22;2301;47.354;8.528;2024-01-11T05:36:53;8.80;74.00
4578;DHT22;2301;47.354;8.528;2024-01-11T05:39:20;8.70;73.60
4578;DHT22;2301;47.354;8.528;2024-01-11T05:41:47;8.70;73.80
4578;DHT22;2301;47.354;8.528;2024-01-11T05:44:14;8.70;73.20
4578;DHT22;2301;47.354;8.528;2024-01-11T05:46:41;8.70;73.90
4578;DHT22;2301;47.354;8.528;2024-01-11T05:49:09;8.70;74.10
4578;DHT22;2301;47.354;8.528;2024-01-11T05:51:36;8.70;74.00
4578;DHT22;2301;47.354;8.528;2024-01-11T05:54:03;8.70;74.20
4578;DHT22;2301;47.354;8.528;2024-01-11T05:56:30;8.70;73.60
4578;DHT22;2301;47.354;8.528;2024-01-11T05:58:57;8.70;73.90
4578;DHT22;2301;47.354;8.528;2024-01-11T06:01:24;8.70;73.70
4578;DHT22;2301;47.354;8.528;2024-01-11T06:03:51;8.80;73.70
4578;DHT22;2301;47.354;8.528;2024-01-11T06:06:19;8.70;71.00
4578;DHT22;2301;47.354;8.528;2024-01-11T06:08:46;8.30;66.40
4578;DHT22;2301;47.354;8.528;2024-01-11T06:11:14;7.90;64.90
4578;DHT22;2301;47.354;8.528;2024-01-11T06:13:43;7.50;64.10
4578;DHT22;2301;47.354;8.528;2024-01-11T06:16:10;7.10;64.20
4578;DHT22;2301;47.354;8.528;2024-01-11T06:18:37;6.80;64.40
4578;DHT22;2301;47.354;8.528;2024-01-11T06:21:04;6.70;64.90
4578;DHT22;2301;47.354;8.528;2024-01-11T06:23:32;6.40;65.10
4578;DHT22;2301;47.354;8.528;2024-01-11T06:25:59;6.10;65.30
4578;DHT22;2301;47.354;8.528;2024-01-11T06:28:26;5.80;65.60
4578;DHT22;2301;47.354;8.528;2024-01-11T06:30:53;5.80;66.30
4578;DHT22;2301;47.354;8.528;2024-01-11T06:33:20;5.60;66.20
4578;DHT22;2301;47.354;8.528;2024-01-11T06:35:47;5.50;66.50
4578;DHT22;2301;47.354;8.528;2024-01-11T06:38:13;5.30;66.80
4578;DHT22;2301;47.354;8.528;2024-01-11T06:40:42;5.20;67.10
4578;DHT22;2301;47.354;8.528;2024-01-11T06:43:09;5.10;67.50
4578;DHT22;2301;47.354;8.528;2024-01-11T06:45:35;5.00;67.80
4578;DHT22;2301;47.354;8.528;2024-01-11T06:48:03;4.90;68.10
4578;DHT22;2301;47.354;8.528;2024-01-11T06:50:30;4.80;68.20
4578;DHT22;2301;47.354;8.528;2024-01-11T06:52:57;4.70;68.40
4578;DHT22;2301;47.354;8.528;2024-01-11T06:55:24;4.60;68.60
4578;DHT22;2301;47.354;8.528;2024-01-11T06:57:52;4.50;69.10
4578;DHT22;2301;47.354;8.528;2024-01-11T07:00:19;4.50;69.40
4578;DHT22;2301;47.354;8.528;2024-01-11T07:02:47;4.40;69.50
4578;DHT22;2301;47.354;8.528;2024-01-11T07:05:16;4.40;69.90
4578;DHT22;2301;47.354;8.528;2024-01-11T07:07:45;4.30;70.20
4578;DHT22;2301;47.354;8.528;2024-01-11T07:10:13;4.20;70.40
4578;DHT22;2301;47.354;8.528;2024-01-11T07:12:41;4.20;70.70
4578;DHT22;2301;47.354;8.528;2024-01-11T07:15:10;4.10;71.00
4578;DHT22;2301;47.354;8.528;2024-01-11T07:17:37;4.10;71.30
4578;DHT22;2301;47.354;8.528;2024-01-11T07:20:05;4.10;71.60
4578;DHT22;2301;47.354;8.528;2024-01-11T07:22:33;4.00;71.80
4578;DHT22;2301;47.354;8.528;2024-01-11T07:25:00;4.00;72.10
4578;DHT22;2301;47.354;8.528;2024-01-11T07:27:27;4.00;72.10
4578;DHT22;2301;47.354;8.528;2024-01-11T07:29:54;4.00;72.40
4578;DHT22;2301;47.354;8.528;2024-01-11T07:32:22;3.90;72.50
4578;DHT22;2301;47.354;8.528;2024-01-11T07:34:49;4.00;72.60
4578;DHT22;2301;47.354;8.528;2024-01-11T07:37:15;3.90;72.60
4578;DHT22;2301;47.354;8.528;2024-01-11T07:39:42;3.80;72.80
4578;DHT22;2301;47.354;8.528;2024-01-11T07:42:09;3.80;72.90
4578;DHT22;2301;47.354;8.528;2024-01-11T07:44:36;3.70;73.00
4578;DHT22;2301;47.354;8.528;2024-01-11T07:47:03;3.70;73.10
4578;DHT22;2301;47.354;8.528;2024-01-11T07:49:31;3.70;73.50
4578;DHT22;2301;47.354;8.528;2024-01-11T07:51:58;3.70;73.50
4578;DHT22;2301;47.354;8.528;2024-01-11T07:54:25;3.70;73.60
4578;DHT22;2301;47.354;8.528;2024-01-11T07:56:52;3.60;73.80
4578;DHT22;2301;47.354;8.528;2024-01-11T07:59:19;3.60;73.80
4578;DHT22;2301;47.354;8.528;2024-01-11T08:01:46;3.60;74.00
4578;DHT22;2301;47.354;8.528;2024-01-11T08:04:13;3.60;74.10
4578;DHT22;2301;47.354;8.528;2024-01-11T08:06:42;3.50;74.90
4578;DHT22;2301;47.354;8.528;2024-01-11T08:09:09;3.60;74.30
4578;DHT22;2301;47.354;8.528;2024-01-11T08:11:36;3.50;74.20
4578;DHT22;2301;47.354;8.528;2024-01-11T08:14:04;3.50;74.20
4578;DHT22;2301;47.354;8.528;2024-01-11T08:16:31;3.50;74.30
4578;DHT22;2301;47.354;8.528;2024-01-11T08:18:58;3.50;74.50
4578;DHT22;2301;47.354;8.528;2024-01-11T08:21:26;3.50;74.60
4578;DHT22;2301;47.354;8.528;2024-01-11T08:23:55;3.50;74.50
4578;DHT22;2301;47.354;8.528;2024-01-11T08:26:22;3.40;74.40
4578;DHT22;2301;47.354;8.528;2024-01-11T08:28:49;3.40;74.40
4578;DHT22;2301;47.354;8.528;2024-01-11T08:31:16;3.40;74.50
4578;DHT22;2301;47.354;8.528;2024-01-11T08:33:43;3.40;74.60
4578;DHT22;2301;47.354;8.528;2024-01-11T08:36:10;3.40;74.40
4578;DHT22;2301;47.354;8.528;2024-01-11T08:38:37;3.40;74.50
4578;DHT22;2301;47.354;8.528;2024-01-11T08:41:05;3.40;74.50
4578;DHT22;2301;47.354;8.528;2024-01-11T08:43:32;3.40;75.20
4578;DHT22;2301;47.354;8.528;2024-01-11T08:45:59;3.40;74.40
4578;DHT22;2301;47.354;8.528;2024-01-11T08:48:27;3.30;73.80
4578;DHT22;2301;47.354;8.528;2024-01-11T08:50:54;3.20;74.70
4578;DHT22;2301;47.354;8.528;2024-01-11T08:53:21;3.20;74.40
4578;DHT22;2301;47.354;8.528;2024-01-11T08:55:48;3.20;74.70
4578;DHT22;2301;47.354;8.528;2024-01-11T08:58:16;3.30;74.90
4578;DHT22;2301;47.354;8.528;2024-01-11T09:00:43;3.30;75.10
4578;DHT22;2301;47.354;8.528;2024-01-11T09:03:10;3.30;75.00
4578;DHT22;2301;47.354;8.528;2024-01-11T09:05:39;3.20;74.70
4578;DHT22;2301;47.354;8.528;2024-01-11T09:08:06;3.20;74.70
4578;DHT22;2301;47.354;8.528;2024-01-11T09:10:33;3.40;75.20
4578;DHT22;2301;47.354;8.528;2024-01-11T09:13:00;3.30;74.90
4578;DHT22;2301;47.354;8.528;2024-01-11T09:15:30;3.30;74.80
4578;DHT22;2301;47.354;8.528;2024-01-11T09:17:58;3.30;75.00
4578;DHT22;2301;47.354;8.528;2024-01-11T09:20:26;3.20;74.70
4578;DHT22;2301;47.354;8.528;2024-01-11T09:22:52;3.30;74.70
4578;DHT22;2301;47.354;8.528;2024-01-11T09:25:19;3.30;74.40
4578;DHT22;2301;47.354;8.528;2024-01-11T09:27:46;3.20;74.30
4578;DHT22;2301;47.354;8.528;2024-01-11T09:30:13;3.20;74.40
4578;DHT22;2301;47.354;8.528;2024-01-11T09:32:42;3.30;74.70
4578;DHT22;2301;47.354;8.528;2024-01-11T09:35:08;3.30;74.70
4578;DHT22;2301;47.354;8.528;2024-01-11T09:37:36;3.30;74.60
4578;DHT22;2301;47.354;8.528;2024-01-11T09:40:03;3.20;74.80
4578;DHT22;2301;47.354;8.528;2024-01-11T09:42:36;3.80;90.10
4578;DHT22;2301;47.354;8.528;2024-01-11T09:45:09;5.10;99.90
4578;DHT22;2301;47.354;8.528;2024-01-11T09:47:39;5.20;93.70
4578;DHT22;2301;47.354;8.528;2024-01-11T09:50:09;5.10;90.40
4578;DHT22;2301;47.354;8.528;2024-01-11T09:52:37;4.80;85.70
4578;DHT22;2301;47.354;8.528;2024-01-11T09:55:05;4.70;83.20
4578;DHT22;2301;47.354;8.528;2024-01-11T09:57:33;4.50;81.10
4578;DHT22;2301;47.354;8.528;2024-01-11T10:00:04;4.30;79.30
4578;DHT22;2301;47.354;8.528;2024-01-11T10:02:33;4.20;78.70
4578;DHT22;2301;47.354;8.528;2024-01-11T10:05:00;4.10;78.10
4578;DHT22;2301;47.354;8.528;2024-01-11T10:07:29;4.00;77.50
4578;DHT22;2301;47.354;8.528;2024-01-11T10:09:56;3.90;77.10
4578;DHT22;2301;47.354;8.528;2024-01-11T10:12:24;3.80;76.90
4578;DHT22;2301;47.354;8.528;2024-01-11T10:14:51;3.90;79.40
4578;DHT22;2301;47.354;8.528;2024-01-11T10:17:18;3.80;77.50
4578;DHT22;2301;47.354;8.528;2024-01-11T10:19:45;3.70;77.10
4578;DHT22;2301;47.354;8.528;2024-01-11T10:22:12;3.80;76.90
4578;DHT22;2301;47.354;8.528;2024-01-11T10:24:44;3.70;76.80
4578;DHT22;2301;47.354;8.528;2024-01-11T10:27:11;3.70;76.70
4578;DHT22;2301;47.354;8.528;2024-01-11T10:29:38;3.70;76.60
4578;DHT22;2301;47.354;8.528;2024-01-11T10:32:05;3.60;76.50
4578;DHT22;2301;47.354;8.528;2024-01-11T10:34:32;3.60;76.30
4578;DHT22;2301;47.354;8.528;2024-01-11T10:36:59;3.60;76.30
4578;DHT22;2301;47.354;8.528;2024-01-11T10:39:26;3.60;76.30
4578;DHT22;2301;47.354;8.528;2024-01-11T10:42:04;3.60;76.30
4578;DHT22;2301;47.354;8.528;2024-01-11T10:44:33;3.60;76.20
4578;DHT22;2301;47.354;8.528;2024-01-11T10:47:03;3.50;76.10
4578;DHT22;2301;47.354;8.528;2024-01-11T10:49:33;3.50;76.20
4578;DHT22;2301;47.354;8.528;2024-01-11T10:52:04;3.50;76.10
4578;DHT22;2301;47.354;8.528;2024-01-11T10:54:33;3.50;76.20
4578;DHT22;2301;47.354;8.528;2024-01-11T10:57:02;3.50;76.50
4578;DHT22;2301;47.354;8.528;2024-01-11T10:59:31;3.50;76.90
4578;DHT22;2301;47.354;8.528;2024-01-11T11:02:04;3.50;76.50
4578;DHT22;2301;47.354;8.528;2024-01-11T11:04:36;3.50;76.20
4578;DHT22;2301;47.354;8.528;2024-01-11T11:07:05;3.50;76.00
4578;DHT22;2301;47.354;8.528;2024-01-11T11:09:34;3.50;76.10
4578;DHT22;2301;47.354;8.528;2024-01-11T11:12:04;3.40;75.80
4578;DHT22;2301;47.354;8.528;2024-01-11T11:14:34;3.40;76.00
4578;DHT22;2301;47.354;8.528;2024-01-11T11:17:01;3.40;76.00
4578;DHT22;2301;47.354;8.528;2024-01-11T11:19:30;3.40;75.70
4578;DHT22;2301;47.354;8.528;2024-01-11T11:21:57;3.40;75.80
4578;DHT22;2301;47.354;8.528;2024-01-11T11:24:24;3.40;75.70
4578;DHT22;2301;47.354;8.528;2024-01-11T11:26:51;3.40;75.70
4578;DHT22;2301;47.354;8.528;2024-01-11T11:29:19;3.40;75.50
4578;DHT22;2301;47.354;8.528;2024-01-11T11:31:46;3.40;75.50
4578;DHT22;2301;47.354;8.528;2024-01-11T11:34:19;3.30;75.20
4578;DHT22;2301;47.354;8.528;2024-01-11T11:36:47;3.40;75.20
4578;DHT22;2301;47.354;8.528;2024-01-11T11:39:15;3.40;75.20
4578;DHT22;2301;47.354;8.528;2024-01-11T11:41:45;3.40;75.10
4578;DHT22;2301;47.354;8.528;2024-01-11T11:44:16;3.30;74.80
4578;DHT22;2301;47.354;8.528;2024-01-11T11:46:45;3.30;75.40
4578;DHT22;2301;47.354;8.528;2024-01-11T11:49:13;3.30;75.20
4578;DHT22;2301;47.354;8.528;2024-01-11T11:51:40;3.20;74.90
4578;DHT22;2301;47.354;8.528;2024-01-11T11:54:10;3.20;75.10
4578;DHT22;2301;47.354;8.528;2024-01-11T11:56:40;3.30;75.40
4578;DHT22;2301;47.354;8.528;2024-01-11T11:59:06;3.20;75.30
4578;DHT22;2301;47.354;8.528;2024-01-11T12:01:35;3.20;75.50
4578;DHT22;2301;47.354;8.528;2024-01-11T12:04:04;3.20;75.40
4578;DHT22;2301;47.354;8.528;2024-01-11T12:06:30;3.20;75.50
4578;DHT22;2301;47.354;8.528;2024-01-11T12:08:59;3.20;75.50
4578;DHT22;2301;47.354;8.528;2024-01-11T12:11:25;3.20;75.60
4578;DHT22;2301;47.354;8.528;2024-01-11T12:13:52;3.20;75.60
4578;DHT22;2301;47.354;8.528;2024-01-11T12:16:22;3.20;75.50
4578;DHT22;2301;47.354;8.528;2024-01-11T12:18:49;3.20;75.70
4578;DHT22;2301;47.354;8.528;2024-01-11T12:21:19;3.20;75.70
4578;DHT22;2301;47.354;8.528;2024-01-11T12:23:46;3.20;75.70
4578;DHT22;2301;47.354;8.528;2024-01-11T12:26:14;3.30;75.90
4578;DHT22;2301;47.354;8.528;2024-01-11T12:28:41;3.20;75.70
4578;DHT22;2301;47.354;8.528;2024-01-11T12:31:09;3.30;75.80
4578;DHT22;2301;47.354;8.528;2024-01-11T12:33:38;3.30;75.80
4578;DHT22;2301;47.354;8.528;2024-01-11T12:36:06;3.30;75.80
4578;DHT22;2301;47.354;8.528;2024-01-11T12:38:35;3.20;75.60
4578;DHT22;2301;47.354;8.528;2024-01-11T12:41:03;3.30;75.70
4578;DHT22;2301;47.354;8.528;2024-01-11T12:43:30;3.30;75.90
4578;DHT22;2301;47.354;8.528;2024-01-11T12:45:57;3.30;75.80
4578;DHT22;2301;47.354;8.528;2024-01-11T12:48:24;3.30;75.80
4578;DHT22;2301;47.354;8.528;2024-01-11T12:50:51;3.30;75.90
4578;DHT22;2301;47.354;8.528;2024-01-11T12:53:19;3.30;75.90
4578;DHT22;2301;47.354;8.528;2024-01-11T12:55:48;3.30;75.80
4578;DHT22;2301;47.354;8.528;2024-01-11T12:58:19;3.30;75.90
4578;DHT22;2301;47.354;8.528;2024-01-11T13:00:47;3.30;76.00
4578;DHT22;2301;47.354;8.528;2024-01-11T13:03:15;3.20;75.90
4578;DHT22;2301;47.354;8.528;2024-01-11T13:05:42;3.20;75.90
4578;DHT22;2301;47.354;8.528;2024-01-11T13:08:08;3.20;76.00
4578;DHT22;2301;47.354;8.528;2024-01-11T13:10:36;3.20;76.00
4578;DHT22;2301;47.354;8.528;2024-01-11T13:13:05;3.20;76.00
4578;DHT22;2301;47.354;8.528;2024-01-11T13:15:34;3.20;76.00
4578;DHT22;2301;47.354;8.528;2024-01-11T13:18:02;3.10;76.00
4578;DHT22;2301;47.354;8.528;2024-01-11T13:20:30;3.20;76.00
4578;DHT22;2301;47.354;8.528;2024-01-11T13:23:12;3.10;75.80
4578;DHT22;2301;47.354;8.528;2024-01-11T13:25:40;3.20;76.00
4578;DHT22;2301;47.354;8.528;2024-01-11T13:28:09;3.10;76.00
4578;DHT22;2301;47.354;8.528;2024-01-11T13:30:37;3.00;75.70
4578;DHT22;2301;47.354;8.528;2024-01-11T13:33:04;3.10;75.90
4578;DHT22;2301;47.354;8.528;2024-01-11T13:35:32;3.10;76.00
4578;DHT22;2301;47.354;8.528;2024-01-11T13:37:59;3.10;76.00
4578;DHT22;2301;47.354;8.528;2024-01-11T13:40:26;3.00;75.90
4578;DHT22;2301;47.354;8.528;2024-01-11T13:42:54;3.00;75.90
4578;DHT22;2301;47.354;8.528;2024-01-11T13:45:22;3.00;76.00
4578;DHT22;2301;47.354;8.528;2024-01-11T13:47:49;3.00;75.90
4578;DHT22;2301;47.354;8.528;2024-01-11T13:50:16;3.00;75.90
4578;DHT22;2301;47.354;8.528;2024-01-11T13:52:44;3.00;75.70
4578;DHT22;2301;47.354;8.528;2024-01-11T13:55:11;3.00;75.70
4578;DHT22;2301;47.354;8.528;2024-01-11T13:57:39;3.00;75.70
4578;DHT22;2301;47.354;8.528;2024-01-11T14:00:08;3.00;75.70
4578;DHT22;2301;47.354;8.528;2024-01-11T14:02:38;3.00;75.70
4578;DHT22;2301;47.354;8.528;2024-01-11T14:05:06;3.00;75.70
4578;DHT22;2301;47.354;8.528;2024-01-11T14:07:37;3.00;75.70
4578;DHT22;2301;47.354;8.528;2024-01-11T14:10:04;3.00;75.90
4578;DHT22;2301;47.354;8.528;2024-01-11T14:12:31;3.00;75.90
4578;DHT22;2301;47.354;8.528;2024-01-11T14:14:58;3.00;75.70
4578;DHT22;2301;47.354;8.528;2024-01-11T14:17:26;2.90;75.50
4578;DHT22;2301;47.354;8.528;2024-01-11T14:19:54;2.90;75.40
4578;DHT22;2301;47.354;8.528;2024-01-11T14:22:21;2.90;75.50
4578;DHT22;2301;47.354;8.528;2024-01-11T14:24:48;2.90;75.50
4578;DHT22;2301;47.354;8.528;2024-01-11T14:27:15;2.90;75.60
4578;DHT22;2301;47.354;8.528;2024-01-11T14:29:42;2.80;75.60
4578;DHT22;2301;47.354;8.528;2024-01-11T14:32:08;2.90;75.70
4578;DHT22;2301;47.354;8.528;2024-01-11T14:34:36;2.90;75.70
4578;DHT22;2301;47.354;8.528;2024-01-11T14:37:05;2.80;75.40
4578;DHT22;2301;47.354;8.528;2024-01-11T14:39:33;2.80;76.10
4578;DHT22;2301;47.354;8.528;2024-01-11T14:42:05;2.80;75.40
4578;DHT22;2301;47.354;8.528;2024-01-11T14:44:35;2.80;75.60
4578;DHT22;2301;47.354;8.528;2024-01-11T14:47:02;2.70;75.50
4578;DHT22;2301;47.354;8.528;2024-01-11T14:49:30;2.80;75.40
4578;DHT22;2301;47.354;8.528;2024-01-11T14:51:56;2.70;75.50
4578;DHT22;2301;47.354;8.528;2024-01-11T14:54:25;2.80;75.60
4578;DHT22;2301;47.354;8.528;2024-01-11T14:56:53;2.80;75.70
4578;DHT22;2301;47.354;8.528;2024-01-11T14:59:20;2.80;75.80
4578;DHT22;2301;47.354;8.528;2024-01-11T15:01:47;2.80;75.80
4578;DHT22;2301;47.354;8.528;2024-01-11T15:04:14;2.80;75.70
4578;DHT22;2301;47.354;8.528;2024-01-11T15:06:40;2.80;75.80
4578;DHT22;2301;47.354;8.528;2024-01-11T15:09:07;2.80;75.90
4578;DHT22;2301;47.354;8.528;2024-01-11T15:11:40;2.80;75.90
4578;DHT22;2301;47.354;8.528;2024-01-11T15:14:08;2.80;75.80
4578;DHT22;2301;47.354;8.528;2024-01-11T15:16:35;2.80;75.90
4578;DHT22;2301;47.354;8.528;2024-01-11T15:19:02;2.80;76.00
4578;DHT22;2301;47.354;8.528;2024-01-11T15:21:29;2.80;75.80
4578;DHT22;2301;47.354;8.528;2024-01-11T15:23:57;2.80;76.40
4578;DHT22;2301;47.354;8.528;2024-01-11T15:26:25;2.90;75.80
4578;DHT22;2301;47.354;8.528;2024-01-11T15:28:53;2.80;75.80
4578;DHT22;2301;47.354;8.528;2024-01-11T15:31:20;2.80;75.70
4578;DHT22;2301;47.354;8.528;2024-01-11T15:33:47;2.70;75.60
4578;DHT22;2301;47.354;8.528;2024-01-11T15:36:14;2.80;75.80
4578;DHT22;2301;47.354;8.528;2024-01-11T15:38:41;2.80;75.70
4578;DHT22;2301;47.354;8.528;2024-01-11T15:41:10;2.70;75.70
4578;DHT22;2301;47.354;8.528;2024-01-11T15:43:37;2.80;75.70
4578;DHT22;2301;47.354;8.528;2024-01-11T15:46:05;2.70;75.60
4578;DHT22;2301;47.354;8.528;2024-01-11T15:48:32;2.70;75.60
4578;DHT22;2301;47.354;8.528;2024-01-11T15:50:59;2.70;75.50
4578;DHT22;2301;47.354;8.528;2024-01-11T15:53:26;2.70;75.50
4578;DHT22;2301;47.354;8.528;2024-01-11T15:55:52;2.70;75.50
4578;DHT22;2301;47.354;8.528;2024-01-11T15:58:19;2.70;75.60
4578;DHT22;2301;47.354;8.528;2024-01-11T16:00:46;2.70;75.60
4578;DHT22;2301;47.354;8.528;2024-01-11T16:03:15;2.60;75.50
4578;DHT22;2301;47.354;8.528;2024-01-11T16:05:42;2.70;75.70
4578;DHT22;2301;47.354;8.528;2024-01-11T16:08:09;2.60;75.70
4578;DHT22;2301;47.354;8.528;2024-01-11T16:10:36;2.60;75.80
4578;DHT22;2301;47.354;8.528;2024-01-11T16:13:03;2.60;75.80
4578;DHT22;2301;47.354;8.528;2024-01-11T16:15:30;2.60;75.70
4578;DHT22;2301;47.354;8.528;2024-01-11T16:17:57;2.60;75.70